createdAt,value
2022-10-23T00:02:33.964Z,11.57
2022-10-23T00:07:36.796Z,11.57
2022-10-23T00:12:39.742Z,11.57
2022-10-23T00:17:42.975Z,11.56
2022-10-23T00:22:46.005Z,11.57
2022-10-23T00:27:48.891Z,11.51
2022-10-23T00:32:51.626Z,11.46
2022-10-23T00:37:54.384Z,11.42
2022-10-23T00:42:57.184Z,11.38
2022-10-23T00:48:03.784Z,11.35
2022-10-23T00:53:07.843Z,11.34
2022-10-23T00:58:10.625Z,11.33
2022-10-23T01:03:16.482Z,11.32
2022-10-23T01:08:31.310Z,11.33
2022-10-23T01:13:55.923Z,11.35
2022-10-23T01:19:04.029Z,11.36
2022-10-23T01:24:22.873Z,11.36
2022-10-23T01:29:39.845Z,11.36
2022-10-23T01:35:02.503Z,11.36
2022-10-23T01:40:14.094Z,11.35
2022-10-23T01:45:27.807Z,11.35
2022-10-23T01:50:31.897Z,11.35
2022-10-23T01:55:39.252Z,11.36
2022-10-23T02:00:45.799Z,11.37
2022-10-23T02:05:48.688Z,11.38
2022-10-23T02:11:13.113Z,11.38
2022-10-23T02:16:41.504Z,11.37
2022-10-23T02:22:05.055Z,11.39
2022-10-23T02:27:15.980Z,11.38
2022-10-23T02:32:22.460Z,11.38
2022-10-23T02:37:25.696Z,11.38
2022-10-23T02:42:34.515Z,11.39
2022-10-23T02:48:04.447Z,11.37
2022-10-23T02:53:16.544Z,11.37
2022-10-23T02:58:23.243Z,11.39
2022-10-23T03:03:32.999Z,11.37
2022-10-23T03:08:53.015Z,11.38
2022-10-23T03:13:55.818Z,11.43
2022-10-23T03:18:58.635Z,11.45
2022-10-23T03:24:01.464Z,11.48
2022-10-23T03:29:04.243Z,11.51
2022-10-23T03:34:11.296Z,11.53
2022-10-23T03:39:14.043Z,11.54
2022-10-23T03:44:16.928Z,11.54
2022-10-23T03:49:19.729Z,11.58
2022-10-23T03:54:25.391Z,11.57
2022-10-23T03:59:28.731Z,11.55
2022-10-23T04:04:31.497Z,11.54
2022-10-23T04:09:34.370Z,11.57
2022-10-23T04:14:37.207Z,11.61
2022-10-23T04:19:39.944Z,11.56
2022-10-23T04:24:46.736Z,11.55
2022-10-23T04:29:49.592Z,11.55
2022-10-23T04:34:52.668Z,11.55
2022-10-23T04:39:55.310Z,11.56
2022-10-23T04:44:58.122Z,11.59
2022-10-23T04:50:00.937Z,11.56
2022-10-23T04:55:04.475Z,11.49
2022-10-23T05:00:10.632Z,11.42
2022-10-23T05:05:13.344Z,11.36
2022-10-23T05:10:16.113Z,11.30
2022-10-23T05:15:18.916Z,11.24
2022-10-23T05:20:26.955Z,11.21
2022-10-23T05:25:30.843Z,11.21
2022-10-23T05:30:34.223Z,11.20
2022-10-23T05:35:38.944Z,11.20
2022-10-23T05:40:41.784Z,11.23
2022-10-23T05:45:44.556Z,11.25
2022-10-23T05:50:47.315Z,11.26
2022-10-23T05:55:50.065Z,11.29
2022-10-23T06:00:52.794Z,11.31
2022-10-23T06:05:55.507Z,11.31
2022-10-23T06:10:58.339Z,11.35
2022-10-23T06:16:15.297Z,11.40
2022-10-23T06:21:18.374Z,11.44
2022-10-23T06:26:21.279Z,11.44
2022-10-23T06:31:26.971Z,11.46
2022-10-23T06:36:29.785Z,11.47
2022-10-23T06:41:32.591Z,11.51
2022-10-23T06:46:36.108Z,11.54
2022-10-23T06:51:38.844Z,11.60
2022-10-23T06:56:41.558Z,11.65
2022-10-23T07:01:44.451Z,11.76
2022-10-23T07:06:47.288Z,11.83
2022-10-23T07:11:50.408Z,11.92
2022-10-23T07:16:53.191Z,12.06
2022-10-23T07:21:56.028Z,12.29
2022-10-23T07:26:58.790Z,12.52
2022-10-23T07:32:02.016Z,12.54
2022-10-23T07:37:04.831Z,12.52
2022-10-23T07:42:09.818Z,12.54
2022-10-23T07:47:12.758Z,12.50
2022-10-23T07:52:15.467Z,12.49
2022-10-23T07:57:18.310Z,12.56
2022-10-23T08:02:21.120Z,12.65
2022-10-23T08:07:23.899Z,12.65
2022-10-23T08:12:26.753Z,12.60
2022-10-23T08:17:29.509Z,12.59
2022-10-23T08:22:32.327Z,12.61
2022-10-23T08:27:35.402Z,12.62
2022-10-23T08:32:38.032Z,12.68
2022-10-23T08:37:41.134Z,12.70
2022-10-23T08:42:51.351Z,12.80
2022-10-23T08:47:58.382Z,13.02
2022-10-23T08:53:32.615Z,13.25
2022-10-23T09:04:13.480Z,13.72
2022-10-23T09:09:38.508Z,13.98
2022-10-23T09:14:52.395Z,14.04
2022-10-23T09:20:07.594Z,13.92
2022-10-23T09:25:16.132Z,13.84
2022-10-23T09:30:35.817Z,13.63
2022-10-23T09:35:38.581Z,13.30
2022-10-23T09:40:43.915Z,13.10
2022-10-23T09:46:01.176Z,13.04
2022-10-23T09:51:25.432Z,13.06
2022-10-23T09:56:40.969Z,13.09
2022-10-23T10:01:52.710Z,13.01
2022-10-23T10:06:58.515Z,13.12
2022-10-23T10:12:30.531Z,13.23
2022-10-23T10:17:42.775Z,13.19
2022-10-23T10:23:01.006Z,13.11
2022-10-23T10:28:36.220Z,13.11
2022-10-23T10:33:51.286Z,13.27
2022-10-23T10:38:59.909Z,13.31
2022-10-23T10:44:24.797Z,13.17
2022-10-23T10:50:09.350Z,13.03
2022-10-23T10:55:18.052Z,12.79
2022-10-23T11:00:23.277Z,12.64
2022-10-23T11:05:34.931Z,12.55
2022-10-23T11:10:42.724Z,12.49
2022-10-23T11:15:46.200Z,12.45
2022-10-23T11:20:54.938Z,12.42
2022-10-23T11:26:23.358Z,12.43
2022-10-23T11:31:34.299Z,12.42
2022-10-23T11:37:01.657Z,12.39
2022-10-23T11:42:04.417Z,12.41
2022-10-23T11:47:36.428Z,12.52
2022-10-23T11:53:13.080Z,12.67
2022-10-23T11:58:23.571Z,12.74
2022-10-23T12:03:40.716Z,12.73
2022-10-23T12:08:50.240Z,12.70
2022-10-23T12:13:53.067Z,12.68
2022-10-23T12:18:57.098Z,12.69
2022-10-23T12:24:22.854Z,12.74
2022-10-23T12:29:34.900Z,12.81
2022-10-23T12:34:56.613Z,12.89
2022-10-23T12:40:02.011Z,13.02
2022-10-23T12:45:19.362Z,13.02
2022-10-23T12:50:24.057Z,13.00
2022-10-23T12:55:30.926Z,13.13
2022-10-23T13:00:36.755Z,13.36
2022-10-23T13:05:39.581Z,13.45
2022-10-23T13:10:42.564Z,13.51
2022-10-23T13:15:45.962Z,13.63
2022-10-23T13:20:51.889Z,13.76
2022-10-23T13:26:23.501Z,13.76
2022-10-23T13:31:33.908Z,13.80
2022-10-23T13:36:39.650Z,13.72
2022-10-23T13:41:45.612Z,13.63
2022-10-23T13:46:48.937Z,13.64
2022-10-23T13:51:53.889Z,13.67
2022-10-23T13:56:57.760Z,13.68
2022-10-23T14:02:01.007Z,13.68
2022-10-23T14:07:04.045Z,13.57
2022-10-23T14:12:07.259Z,13.41
2022-10-23T14:17:09.986Z,13.37
2022-10-23T14:22:13.066Z,13.36
2022-10-23T14:27:15.862Z,13.30
2022-10-23T14:32:18.642Z,13.21
2022-10-23T14:37:21.956Z,13.16
2022-10-23T14:42:26.970Z,13.10
2022-10-23T14:47:32.276Z,13.08
2022-10-23T14:52:34.956Z,13.04
2022-10-23T14:57:37.759Z,12.97
2022-10-23T15:02:40.689Z,12.92
2022-10-23T15:07:43.377Z,12.86
2022-10-23T15:12:46.466Z,12.81
2022-10-23T15:17:49.569Z,12.70
2022-10-23T15:22:52.303Z,12.51
2022-10-23T15:27:55.044Z,12.35
2022-10-23T15:32:57.917Z,12.23
2022-10-23T15:38:00.694Z,12.09
2022-10-23T15:43:05.029Z,11.97
2022-10-23T15:48:08.606Z,11.87
2022-10-23T15:58:49.947Z,11.60
2022-10-23T16:03:53.174Z,11.46
2022-10-23T16:08:56.037Z,11.34
2022-10-23T16:14:00.046Z,11.23
2022-10-23T16:19:04.669Z,11.13
2022-10-23T16:24:08.597Z,11.03
2022-10-23T16:29:11.830Z,10.95
2022-10-23T16:34:14.711Z,10.86
2022-10-23T16:39:19.113Z,10.73
2022-10-23T16:44:21.835Z,10.65
2022-10-23T16:49:24.606Z,10.60
2022-10-23T16:54:27.372Z,10.56
2022-10-23T16:59:30.229Z,10.49
2022-10-23T17:04:32.968Z,10.39
2022-10-23T17:09:35.871Z,10.27
2022-10-23T17:14:39.275Z,10.10
2022-10-23T17:19:46.514Z,9.97
2022-10-23T17:24:52.961Z,9.79
2022-10-23T17:29:56.969Z,9.68
2022-10-23T17:34:59.690Z,9.60
2022-10-23T17:40:02.707Z,9.56
2022-10-23T17:45:06.213Z,9.56
2022-10-23T17:50:09.620Z,9.53
2022-10-23T17:55:12.382Z,9.46
2022-10-23T18:00:16.270Z,9.39
2022-10-23T18:05:18.999Z,9.34
2022-10-23T18:10:21.739Z,9.26
2022-10-23T18:15:24.559Z,9.21
2022-10-23T18:20:27.743Z,9.22
2022-10-23T18:25:31.033Z,9.21
2022-10-23T18:35:42.065Z,9.22
2022-10-23T18:40:45.055Z,9.21
2022-10-23T18:45:47.936Z,9.20
2022-10-23T18:50:50.662Z,9.19
2022-10-23T18:55:53.462Z,9.16
2022-10-23T19:00:56.226Z,9.09
2022-10-23T19:05:59.122Z,9.00
2022-10-23T19:11:01.906Z,8.95
2022-10-23T19:16:08.431Z,8.85
2022-10-23T19:21:11.848Z,8.80
2022-10-23T19:26:15.373Z,8.75
2022-10-23T19:31:18.773Z,8.77
2022-10-23T19:36:23.574Z,8.77
2022-10-23T19:41:26.574Z,8.77
2022-10-23T19:46:29.355Z,8.75
2022-10-23T19:51:32.885Z,8.76
2022-10-23T19:56:36.663Z,8.80
2022-10-23T20:01:39.625Z,8.90
2022-10-23T20:06:42.489Z,8.97
2022-10-23T20:11:45.489Z,9.04
2022-10-23T20:16:51.126Z,9.12
2022-10-23T20:21:57.813Z,9.20
2022-10-23T20:27:00.647Z,9.16
2022-10-23T20:32:03.497Z,9.18
2022-10-23T20:37:06.248Z,9.26
2022-10-23T20:42:09.019Z,9.32
2022-10-23T20:47:11.830Z,9.43
2022-10-23T20:52:14.563Z,9.59
2022-10-23T20:57:20.548Z,9.80
2022-10-23T21:02:24.302Z,9.91
2022-10-23T21:07:27.196Z,10.01
2022-10-23T21:12:29.990Z,10.13
2022-10-23T21:17:36.167Z,10.24
2022-10-23T21:22:39.189Z,10.25
2022-10-23T21:27:42.197Z,10.31
2022-10-23T21:32:45.037Z,10.38
2022-10-23T21:37:47.715Z,10.42
2022-10-23T21:42:50.440Z,10.37
2022-10-23T21:47:53.282Z,10.38
2022-10-23T21:52:57.212Z,10.37
2022-10-23T21:58:00.011Z,10.34
2022-10-23T22:03:02.823Z,10.35
2022-10-23T22:08:06.025Z,10.35
2022-10-23T22:13:08.824Z,10.38
2022-10-23T22:18:11.625Z,10.38
2022-10-23T22:23:14.527Z,10.39
2022-10-23T22:28:17.838Z,10.42
2022-10-23T22:33:20.643Z,10.42
2022-10-23T22:38:23.442Z,10.40
2022-10-23T22:43:26.242Z,10.38
2022-10-23T22:48:29.042Z,10.35
2022-10-23T22:53:33.031Z,10.28
2022-10-23T22:58:37.149Z,10.26
2022-10-23T23:03:40.289Z,10.20
2022-10-23T23:08:43.805Z,10.18
2022-10-23T23:13:47.921Z,10.15
2022-10-23T23:18:51.276Z,10.21
2022-10-23T23:23:54.750Z,10.23
2022-10-23T23:28:57.492Z,10.20
2022-10-23T23:34:00.398Z,10.21
2022-10-23T23:44:12.246Z,10.13
2022-10-23T23:49:15.048Z,10.14
2022-10-23T23:54:18.158Z,10.17
2022-10-23T23:59:20.851Z,10.16
